Time;durP1;ratioP1;P1;durP2;ratioP2;P2;SDS_P1;SDS_P2;PMS_P1;PMS_P2;Temp;Humidity;BMP_temperature;BMP_pressure;BME280_temperature;BME280_humidity;BME280_pressure;Samples;Min_cycle;Max_cycle;Signal;HPM_P1;HPM_P2
2021/12/15 00:01:38;;;;;;;33.17;23.40;;;9.60;99.90;;;;;;5037725;28;20671;-85
2021/12/15 00:04:05;;;;;;;36.67;24.37;;;9.60;99.90;;;;;;5037498;28;20169;-86
2021/12/15 00:06:31;;;;;;;39.57;24.83;;;9.50;99.90;;;;;;5055972;28;20556;-85
2021/12/15 00:08:59;;;;;;;34.90;23.87;;;9.50;99.90;;;;;;5037598;28;20217;-87
2021/12/15 00:11:32;;;;;;;36.07;24.33;;;9.50;99.90;;;;;;5055852;28;20184;-86
2021/12/15 00:14:00;;;;;;;36.60;25.73;;;9.60;99.90;;;;;;5037861;28;20211;-85
2021/12/15 00:16:27;;;;;;;37.43;24.50;;;9.60;99.90;;;;;;5054630;28;20196;-87
2021/12/15 00:18:53;;;;;;;38.07;25.17;;;9.50;99.90;;;;;;5035594;28;20200;-86
2021/12/15 00:21:20;;;;;;;36.43;25.00;;;9.60;99.90;;;;;;5035906;28;20199;-85
2021/12/15 00:23:48;;;;;;;35.43;23.37;;;9.50;99.90;;;;;;5036419;28;20543;-82
2021/12/15 00:26:16;;;;;;;36.83;24.80;;;9.50;99.90;;;;;;5035552;28;20184;-84
2021/12/15 00:28:43;;;;;;;34.63;24.60;;;9.50;99.90;;;;;;5053288;28;20235;-86
2021/12/15 00:31:10;;;;;;;34.47;23.23;;;9.50;99.90;;;;;;5056143;28;20211;-88
2021/12/15 00:33:39;;;;;;;38.67;24.97;;;9.50;99.90;;;;;;5073411;28;20177;-85
2021/12/15 00:36:07;;;;;;;37.93;25.03;;;9.50;99.90;;;;;;5054057;28;20187;-86
2021/12/15 00:38:33;;;;;;;35.60;24.57;;;9.50;99.90;;;;;;5040275;28;20176;-85
2021/12/15 00:41:00;;;;;;;37.00;23.83;;;9.60;99.90;;;;;;5055734;28;20195;-81
2021/12/15 00:43:32;;;;;;;35.20;23.50;;;9.50;99.90;;;;;;5058520;28;20158;-84
2021/12/15 00:45:58;;;;;;;36.70;25.13;;;9.60;99.90;;;;;;5076157;28;20186;-84
2021/12/15 00:48:24;;;;;;;34.03;23.30;;;9.50;99.90;;;;;;5057182;28;20227;-86
2021/12/15 00:50:51;;;;;;;39.90;25.47;;;9.50;99.90;;;;;;5051686;28;20176;-86
2021/12/15 00:53:17;;;;;;;39.27;23.87;;;9.60;99.90;;;;;;5040980;28;20230;-84
2021/12/15 00:55:45;;;;;;;38.53;25.43;;;9.60;99.90;;;;;;5037592;28;20165;-86
2021/12/15 00:58:12;;;;;;;37.30;24.27;;;9.60;99.90;;;;;;5036636;28;20319;-85
2021/12/15 01:00:44;;;;;;;39.37;25.43;;;9.60;99.90;;;;;;5035986;28;20276;-87
2021/12/15 01:03:12;;;;;;;35.07;24.97;;;9.50;99.90;;;;;;5036284;28;20664;-87
2021/12/15 01:05:44;;;;;;;37.70;24.40;;;9.50;99.90;;;;;;5044770;28;20206;-86
2021/12/15 01:08:14;;;;;;;39.17;24.73;;;9.50;99.90;;;;;;5072659;28;20223;-83
2021/12/15 01:11:05;;;;;;;39.70;25.17;;;9.50;99.90;;;;;;5039584;28;20280;-86
2021/12/15 01:21:52;;;;;;;40.27;25.87;;;9.50;99.90;;;;;;5060737;28;20200;-83
2021/12/15 01:24:21;;;;;;;39.53;26.63;;;9.60;99.90;;;;;;5063227;28;20188;-82
2021/12/15 01:26:47;;;;;;;42.27;26.97;;;9.60;99.90;;;;;;5057127;28;20181;-82
2021/12/15 01:29:14;;;;;;;42.27;26.07;;;9.70;99.90;;;;;;5072796;28;20212;-87
2021/12/15 01:31:43;;;;;;;45.10;25.97;;;9.50;99.90;;;;;;5041144;28;20181;-82
2021/12/15 01:34:11;;;;;;;39.03;25.80;;;9.50;99.90;;;;;;5053898;28;20250;-85
2021/12/15 01:36:37;;;;;;;40.90;26.47;;;9.50;99.90;;;;;;5061607;28;20191;-85
2021/12/15 01:39:04;;;;;;;41.53;27.23;;;9.50;99.90;;;;;;5047996;28;20259;-85
2021/12/15 01:41:30;;;;;;;40.20;26.10;;;9.50;99.90;;;;;;5045898;28;20176;-83
2021/12/15 01:47:01;;;;;;;38.57;26.10;;;9.50;99.90;;;;;;5080403;28;20197;-82
2021/12/15 01:49:47;;;;;;;38.97;25.17;;;9.50;99.90;;;;;;5056258;28;20208;-81
2021/12/15 01:52:29;;;;;;;39.23;25.20;;;9.50;99.90;;;;;;5045001;28;20177;-86
2021/12/15 01:55:16;;;;;;;37.30;25.43;;;9.50;99.90;;;;;;5038856;28;20204;-84
2021/12/15 01:57:43;;;;;;;38.47;25.07;;;9.50;99.90;;;;;;5043119;28;20199;-84
2021/12/15 02:00:38;;;;;;;40.63;26.07;;;9.50;99.90;;;;;;5062244;28;20181;-84
2021/12/15 02:03:03;;;;;;;38.97;24.90;;;9.50;99.90;;;;;;5049911;28;20176;-84
2021/12/15 02:05:32;;;;;;;40.20;25.40;;;9.50;99.90;;;;;;5043743;28;20532;-85
2021/12/15 02:08:02;;;;;;;37.40;23.63;;;9.50;99.90;;;;;;5049289;28;20201;-80
2021/12/15 02:10:35;;;;;;;38.20;24.63;;;9.50;99.90;;;;;;5051198;28;20192;-82
2021/12/15 02:13:06;;;;;;;40.67;25.27;;;9.40;99.90;;;;;;5057835;28;20177;-80
2021/12/15 02:16:02;;;;;;;40.63;24.10;;;9.60;99.90;;;;;;5060111;28;20200;-81
2021/12/15 02:18:35;;;;;;;41.70;25.40;;;9.60;99.90;;;;;;5071746;28;20200;-81
2021/12/15 02:21:07;;;;;;;41.63;25.10;;;9.50;99.90;;;;;;5057524;28;20196;-82
2021/12/15 02:23:40;;;;;;;42.47;27.03;;;9.50;99.90;;;;;;5053531;28;20252;-85
2021/12/15 02:26:15;;;;;;;42.50;26.50;;;9.50;99.90;;;;;;5051327;28;20164;-82
2021/12/15 02:28:47;;;;;;;42.23;26.00;;;9.50;99.90;;;;;;5057661;28;20223;-87
2021/12/15 02:37:20;;;;;;;42.57;26.50;;;9.40;99.90;;;;;;5056629;28;20161;-82
2021/12/15 02:40:06;;;;;;;43.60;26.73;;;9.40;99.90;;;;;;5043857;28;20180;-84
2021/12/15 02:42:38;;;;;;;46.90;27.37;;;9.50;99.90;;;;;;5067102;28;20196;-81
2021/12/15 02:45:10;;;;;;;47.20;28.30;;;9.60;99.90;;;;;;5031294;28;20181;-83
2021/12/15 02:47:37;;;;;;;46.67;27.07;;;9.70;99.90;;;;;;5037432;28;20211;-86
2021/12/15 02:50:06;;;;;;;44.23;28.13;;;9.80;99.90;;;;;;5036724;28;20216;-85
2021/12/15 02:52:33;;;;;;;44.33;27.50;;;9.70;99.90;;;;;;5036406;28;20177;-85
2021/12/15 02:54:59;;;;;;;44.97;26.47;;;9.60;99.90;;;;;;5036958;28;20184;-86
2021/12/15 02:57:25;;;;;;;44.10;26.93;;;9.60;99.90;;;;;;5036376;28;20533;-85
2021/12/15 03:00:15;;;;;;;42.77;26.67;;;9.60;99.90;;;;;;5036975;28;20188;-87
2021/12/15 03:05:36;;;;;;;39.40;25.73;;;9.50;99.90;;;;;;5054787;28;20537;-86
2021/12/15 03:08:09;;;;;;;41.10;26.23;;;9.60;99.90;;;;;;5036804;28;20561;-86
2021/12/15 03:16:08;;;;;;;42.03;25.67;;;9.40;99.90;;;;;;5047333;28;20175;-86
2021/12/15 03:18:35;;;;;;;38.47;24.37;;;9.50;99.90;;;;;;5036900;28;20550;-87
2021/12/15 03:21:08;;;;;;;37.87;24.30;;;9.50;99.90;;;;;;5038385;28;20212;-85
2021/12/15 03:23:54;;;;;;;38.27;24.23;;;9.50;99.90;;;;;;5034285;28;20177;-86
2021/12/15 03:26:32;;;;;;;36.70;24.87;;;9.30;99.90;;;;;;5032261;28;20207;-86
2021/12/15 03:37:23;;;;;;;34.80;22.37;;;9.50;99.90;;;;;;5054611;28;20183;-86
2021/12/15 03:40:00;;;;;;;35.97;23.57;;;9.50;99.90;;;;;;5037174;28;20172;-87
2021/12/15 03:42:40;;;;;;;39.63;25.53;;;9.40;99.90;;;;;;5038088;28;20179;-84
2021/12/15 03:45:14;;;;;;;37.23;23.07;;;9.70;99.90;;;;;;5031825;28;20183;-87
2021/12/15 03:47:45;;;;;;;37.73;23.87;;;9.60;99.90;;;;;;5057269;28;20242;-86
2021/12/15 03:50:13;;;;;;;39.03;24.83;;;9.70;99.90;;;;;;5060014;28;20191;-85
2021/12/15 03:52:40;;;;;;;38.67;24.77;;;9.70;99.90;;;;;;5077118;28;20185;-84
2021/12/15 03:55:13;;;;;;;39.30;24.90;;;9.80;99.90;;;;;;5059894;28;20153;-82
2021/12/15 03:57:57;;;;;;;35.33;22.37;;;9.70;99.90;;;;;;5077008;28;20180;-84
2021/12/15 04:00:27;;;;;;;36.83;23.87;;;9.80;99.90;;;;;;5043497;28;20601;-86
2021/12/15 04:02:59;;;;;;;34.60;23.80;;;9.70;99.90;;;;;;5045241;28;20200;-86
2021/12/15 04:05:45;;;;;;;35.97;23.97;;;9.70;99.90;;;;;;5046941;28;20169;-85
2021/12/15 04:08:15;;;;;;;36.47;23.07;;;9.60;99.90;;;;;;5046366;28;20243;-85
2021/12/15 04:10:44;;;;;;;39.20;24.17;;;9.70;99.90;;;;;;5056982;28;20165;-87
2021/12/15 04:13:13;;;;;;;32.70;22.97;;;9.90;99.90;;;;;;5069787;28;20152;-82
2021/12/15 04:15:52;;;;;;;38.67;25.00;;;10.00;99.90;;;;;;5067516;28;20688;-83
2021/12/15 04:18:18;;;;;;;37.83;23.80;;;9.90;99.90;;;;;;5037377;28;20173;-87
2021/12/15 04:20:44;;;;;;;34.00;23.43;;;9.90;99.90;;;;;;5063624;28;20173;-85
2021/12/15 04:23:12;;;;;;;38.77;25.63;;;9.80;99.90;;;;;;5060362;28;20173;-83
2021/12/15 04:25:40;;;;;;;37.27;24.23;;;9.80;99.90;;;;;;5074887;28;20165;-83
2021/12/15 04:28:16;;;;;;;39.53;25.23;;;9.90;99.90;;;;;;5050553;28;20291;-82
2021/12/15 04:30:48;;;;;;;38.90;24.13;;;9.80;99.90;;;;;;5038489;28;20183;-84
2021/12/15 04:33:55;;;;;;;38.10;25.80;;;9.80;99.90;;;;;;5060541;28;20596;-87
2021/12/15 04:36:26;;;;;;;42.90;26.20;;;9.70;99.90;;;;;;5031908;28;20192;-86
2021/12/15 04:38:56;;;;;;;40.70;26.50;;;9.60;99.90;;;;;;5041878;28;20180;-86
2021/12/15 04:41:22;;;;;;;38.13;24.40;;;9.70;99.90;;;;;;5044220;28;20237;-85
2021/12/15 04:43:56;;;;;;;38.00;24.93;;;9.80;99.90;;;;;;5060134;28;20165;-86
2021/12/15 04:46:25;;;;;;;40.27;23.40;;;9.70;99.90;;;;;;5061173;28;20171;-84
2021/12/15 04:48:51;;;;;;;42.20;25.30;;;9.60;99.90;;;;;;5057206;28;20247;-84
2021/12/15 04:51:18;;;;;;;38.93;26.07;;;9.80;99.90;;;;;;5045588;28;20184;-85
2021/12/15 04:53:48;;;;;;;39.17;25.83;;;9.70;99.90;;;;;;5041350;28;20185;-82
2021/12/15 04:56:15;;;;;;;39.63;24.87;;;9.80;99.90;;;;;;5041107;28;20192;-87
2021/12/15 04:58:41;;;;;;;39.43;24.87;;;9.70;99.90;;;;;;5055842;28;20176;-82
2021/12/15 05:01:10;;;;;;;42.53;26.13;;;9.60;99.90;;;;;;5076398;28;20177;-82
2021/12/15 05:03:38;;;;;;;36.80;24.80;;;9.60;99.90;;;;;;5045108;28;20185;-84
2021/12/15 05:06:05;;;;;;;45.43;26.67;;;9.60;99.90;;;;;;5042385;28;20177;-86
2021/12/15 05:08:39;;;;;;;39.53;26.53;;;9.60;99.90;;;;;;5041282;28;20216;-85
2021/12/15 05:11:09;;;;;;;39.10;25.40;;;9.60;99.90;;;;;;5033190;28;20534;-86
2021/12/15 05:13:36;;;;;;;42.50;27.17;;;9.60;99.90;;;;;;5040218;28;20173;-87
2021/12/15 05:16:03;;;;;;;39.40;26.97;;;9.60;99.90;;;;;;5020490;28;20186;-85
2021/12/15 05:18:29;;;;;;;41.20;27.67;;;9.60;99.90;;;;;;5037145;28;20199;-85
2021/12/15 05:20:57;;;;;;;42.27;28.37;;;9.70;99.90;;;;;;5041044;28;20204;-85
2021/12/15 05:23:28;;;;;;;42.27;27.43;;;9.70;99.90;;;;;;5056533;28;20161;-84
2021/12/15 05:25:56;;;;;;;42.07;27.23;;;9.80;99.90;;;;;;5080325;28;20150;-87
2021/12/15 05:28:22;;;;;;;42.70;27.30;;;9.70;99.90;;;;;;5051912;28;20217;-82
2021/12/15 05:30:48;;;;;;;43.90;26.83;;;9.70;99.90;;;;;;5047479;28;20184;-83
2021/12/15 05:33:16;;;;;;;38.70;26.07;;;9.70;99.90;;;;;;5060195;28;20172;-86
2021/12/15 05:36:04;;;;;;;42.07;25.40;;;9.70;99.90;;;;;;5040023;28;20172;-85
2021/12/15 05:38:30;;;;;;;41.57;26.63;;;9.60;99.90;;;;;;5048309;28;20169;-83
2021/12/15 05:40:59;;;;;;;44.07;26.47;;;9.70;99.90;;;;;;5058720;28;20652;-82
2021/12/15 05:43:26;;;;;;;46.53;27.97;;;9.60;99.90;;;;;;5058710;28;20208;-84
2021/12/15 05:45:52;;;;;;;42.70;27.87;;;9.70;99.90;;;;;;5055675;28;20179;-82
2021/12/15 05:48:19;;;;;;;43.30;28.23;;;9.70;99.90;;;;;;5057628;28;20201;-81
2021/12/15 05:50:47;;;;;;;40.73;26.80;;;9.70;99.90;;;;;;5054610;28;20176;-84
2021/12/15 05:53:14;;;;;;;42.07;26.60;;;9.70;99.90;;;;;;5044348;28;20211;-83
2021/12/15 05:55:41;;;;;;;42.30;28.70;;;9.70;99.90;;;;;;5068872;28;20165;-83
2021/12/15 05:58:07;;;;;;;44.23;27.30;;;9.70;99.90;;;;;;5052582;28;20157;-86
2021/12/15 06:00:36;;;;;;;40.53;26.77;;;9.70;99.90;;;;;;5053121;28;20196;-83
2021/12/15 06:03:02;;;;;;;40.80;27.23;;;9.70;99.90;;;;;;5061216;28;20165;-85
2021/12/15 06:05:28;;;;;;;37.77;26.73;;;9.80;99.90;;;;;;5069609;28;20189;-83
2021/12/15 06:07:56;;;;;;;42.83;28.30;;;9.90;99.90;;;;;;5072460;28;20281;-86
2021/12/15 06:10:28;;;;;;;37.70;26.17;;;9.80;99.90;;;;;;5052577;28;20185;-85
2021/12/15 06:12:55;;;;;;;38.90;27.97;;;9.80;99.90;;;;;;5036071;28;20177;-82
2021/12/15 06:15:24;;;;;;;36.63;26.37;;;9.90;99.90;;;;;;5050550;28;20523;-86
2021/12/15 06:18:00;;;;;;;38.47;27.77;;;10.00;99.90;;;;;;5059787;28;20171;-86
2021/12/15 06:20:27;;;;;;;41.50;27.13;;;10.10;99.90;;;;;;5039909;28;20199;-84
2021/12/15 06:22:55;;;;;;;39.93;27.70;;;10.00;99.90;;;;;;5039616;28;20181;-84
2021/12/15 06:25:22;;;;;;;38.20;26.73;;;10.10;99.90;;;;;;5040147;28;20268;-85
2021/12/15 06:27:51;;;;;;;40.03;27.90;;;9.90;99.90;;;;;;5040108;28;20203;-85
2021/12/15 06:30:17;;;;;;;43.93;27.33;;;9.90;99.90;;;;;;5039735;28;20169;-83
2021/12/15 06:32:45;;;;;;;41.27;26.63;;;9.90;99.90;;;;;;5039167;28;20173;-86
2021/12/15 06:35:14;;;;;;;39.07;26.67;;;9.90;99.90;;;;;;5039650;28;20169;-85
2021/12/15 06:37:41;;;;;;;39.63;26.57;;;9.90;99.90;;;;;;5037565;28;20185;-85
2021/12/15 06:40:09;;;;;;;42.20;29.07;;;10.00;99.90;;;;;;5038695;28;20223;-83
2021/12/15 06:42:39;;;;;;;39.50;27.50;;;10.10;99.90;;;;;;5038470;28;20180;-86
2021/12/15 06:45:07;;;;;;;40.80;26.30;;;10.10;99.90;;;;;;5024657;28;20621;-86
2021/12/15 06:57:27;;;;;;;37.73;26.30;;;10.10;99.90;;;;;;5031073;28;20554;-86
2021/12/15 06:58:52;;;;;;;35.70;24.53;;;10.10;99.90;;;;;;5077505;28;20242;-85
2021/12/15 07:01:18;;;;;;;34.03;23.57;;;10.10;99.90;;;;;;5054518;28;20181;-84
2021/12/15 07:03:46;;;;;;;35.60;24.63;;;10.10;99.90;;;;;;5069504;28;20199;-81
2021/12/15 07:09:35;;;;;;;38.07;26.60;;;10.00;99.90;;;;;;5047755;28;20331;-87
2021/12/15 07:16:08;;;;;;;40.00;28.10;;;10.00;99.90;;;;;;5059765;28;20165;-88
2021/12/15 07:18:47;;;;;;;39.33;26.73;;;10.20;99.90;;;;;;5048565;28;20192;-81
2021/12/15 07:21:19;;;;;;;37.07;25.20;;;10.20;99.90;;;;;;5059389;28;20165;-83
2021/12/15 07:23:47;;;;;;;41.37;26.70;;;10.20;99.90;;;;;;5060170;28;20180;-83
2021/12/15 07:26:13;;;;;;;38.10;26.17;;;10.10;99.90;;;;;;5053694;28;20696;-83
2021/12/15 07:28:40;;;;;;;36.53;24.77;;;10.10;99.90;;;;;;5068283;28;20212;-84
2021/12/15 07:31:14;;;;;;;40.63;26.23;;;10.00;99.90;;;;;;5042981;28;20173;-86
2021/12/15 07:33:48;;;;;;;33.80;24.20;;;10.10;99.90;;;;;;5039246;28;20653;-85
2021/12/15 07:39:58;;;;;;;37.20;25.33;;;10.10;99.90;;;;;;5058631;28;20211;-88
2021/12/15 07:42:42;;;;;;;35.27;25.27;;;10.00;99.90;;;;;;5023794;28;20173;-85
2021/12/15 07:45:10;;;;;;;37.13;25.17;;;10.20;99.90;;;;;;5057699;28;20164;-84
2021/12/15 07:47:37;;;;;;;35.97;24.20;;;10.20;99.90;;;;;;5076194;28;20200;-85
2021/12/15 07:50:06;;;;;;;36.83;24.23;;;10.20;99.90;;;;;;5052855;28;20185;-86
2021/12/15 07:52:51;;;;;;;35.33;23.33;;;10.30;99.90;;;;;;5045445;28;20648;-85
2021/12/15 07:55:19;;;;;;;34.93;23.83;;;10.20;99.90;;;;;;5038259;28;20540;-86
2021/12/15 07:57:46;;;;;;;36.17;23.70;;;10.20;99.90;;;;;;5038376;28;20262;-86
2021/12/15 08:00:15;;;;;;;34.57;23.03;;;10.20;99.90;;;;;;5037837;28;20185;-85
2021/12/15 08:02:41;;;;;;;30.53;22.63;;;10.20;99.90;;;;;;5059381;28;20179;-84
2021/12/15 08:05:09;;;;;;;32.30;23.23;;;10.30;99.90;;;;;;5044441;28;20264;-91
2021/12/15 08:07:35;;;;;;;32.23;21.73;;;10.30;99.90;;;;;;5031329;28;20177;-84
2021/12/15 08:10:06;;;;;;;34.30;22.40;;;10.30;99.90;;;;;;5041413;28;20224;-83
2021/12/15 08:12:34;;;;;;;105.47;68.50;;;10.20;99.90;;;;;;5036608;28;20177;-86
2021/12/15 08:15:04;;;;;;;50.87;33.87;;;10.30;99.90;;;;;;5020338;28;20547;-86
2021/12/15 08:17:32;;;;;;;31.67;22.57;;;10.30;99.90;;;;;;5030852;28;20165;-85
2021/12/15 08:19:57;;;;;;;32.87;22.53;;;10.40;99.90;;;;;;5038010;28;20584;-87
2021/12/15 08:22:24;;;;;;;34.17;22.43;;;10.50;99.90;;;;;;5046072;28;20190;-84
2021/12/15 08:24:52;;;;;;;32.03;23.40;;;10.30;99.90;;;;;;5029609;28;20181;-86
2021/12/15 08:27:18;;;;;;;35.10;22.53;;;10.30;99.90;;;;;;5034260;28;20288;-88
2021/12/15 08:29:44;;;;;;;31.80;22.93;;;10.30;99.90;;;;;;5065357;28;20209;-88
2021/12/15 08:32:09;;;;;;;33.87;24.50;;;10.30;99.90;;;;;;5060710;28;20177;-87
2021/12/15 08:34:35;;;;;;;34.47;23.80;;;10.40;99.90;;;;;;5048317;28;20193;-86
2021/12/15 08:37:01;;;;;;;35.93;23.17;;;10.40;99.90;;;;;;5045235;28;20291;-86
2021/12/15 08:39:27;;;;;;;35.10;24.43;;;10.50;99.90;;;;;;5051178;28;20165;-86
2021/12/15 08:41:54;;;;;;;34.47;23.37;;;10.40;99.90;;;;;;5063225;28;20211;-84
2021/12/15 08:44:46;;;;;;;34.37;23.40;;;10.40;99.90;;;;;;5063411;28;20181;-86
2021/12/15 08:47:47;;;;;;;32.90;23.10;;;10.30;99.90;;;;;;5064615;28;20197;-84
2021/12/15 08:53:38;;;;;;;37.57;24.47;;;10.30;99.90;;;;;;5060411;28;20157;-85
2021/12/15 08:56:04;;;;;;;35.67;25.10;;;10.30;99.90;;;;;;5043658;28;20150;-84
2021/12/15 08:58:34;;;;;;;36.00;25.00;;;10.30;99.90;;;;;;5043910;28;20169;-84
2021/12/15 09:01:30;;;;;;;36.80;25.67;;;10.30;99.90;;;;;;5061364;28;20146;-84
2021/12/15 09:03:57;;;;;;;39.90;24.50;;;10.20;99.90;;;;;;5031981;28;20196;-85
2021/12/15 09:06:25;;;;;;;37.67;24.27;;;10.30;99.90;;;;;;5054499;28;20177;-87
2021/12/15 09:09:03;;;;;;;35.40;24.83;;;10.30;99.90;;;;;;5053166;28;20207;-87
2021/12/15 09:11:30;;;;;;;38.33;25.73;;;10.20;99.90;;;;;;5043174;28;20161;-87
2021/12/15 09:14:01;;;;;;;37.90;25.83;;;10.30;99.90;;;;;;5038891;28;20260;-87
2021/12/15 09:16:32;;;;;;;38.77;27.03;;;10.20;99.90;;;;;;5030157;28;20173;-87
2021/12/15 09:18:59;;;;;;;40.17;25.83;;;10.30;99.90;;;;;;5034708;28;20555;-90
2021/12/15 09:21:31;;;;;;;36.53;25.80;;;10.20;99.90;;;;;;5032535;28;20182;-85
2021/12/15 09:23:58;;;;;;;36.97;24.07;;;10.30;99.90;;;;;;5032591;28;20181;-86
2021/12/15 09:26:23;;;;;;;73.40;51.83;;;10.30;99.90;;;;;;5040935;28;20164;-85
2021/12/15 09:28:50;;;;;;;43.63;31.70;;;10.40;99.90;;;;;;5027817;28;20616;-86
2021/12/15 09:31:16;;;;;;;39.77;27.10;;;10.20;99.90;;;;;;5046241;28;20207;-85
2021/12/15 09:33:46;;;;;;;36.77;26.43;;;10.30;99.90;;;;;;5051028;28;20223;-85
2021/12/15 09:36:15;;;;;;;38.83;24.77;;;10.30;99.90;;;;;;5052189;28;20205;-85
2021/12/15 09:38:42;;;;;;;37.53;25.77;;;10.20;99.90;;;;;;5068865;28;20224;-87
2021/12/15 09:41:10;;;;;;;38.40;27.07;;;10.20;99.90;;;;;;5057247;28;20173;-86
2021/12/15 09:43:37;;;;;;;35.97;25.77;;;10.40;99.90;;;;;;5059923;28;20181;-87
2021/12/15 09:46:31;;;;;;;34.50;25.53;;;10.20;99.90;;;;;;5057784;28;20177;-85
2021/12/15 09:57:47;;;;;;;34.30;25.90;;;10.20;99.90;;;;;;5077313;28;20221;-91
2021/12/15 10:03:11;;;;;;;36.80;24.80;;;10.20;99.90;;;;;;5071133;28;20259;-89
2021/12/15 10:05:58;;;;;;;37.70;26.70;;;10.20;99.90;;;;;;5050439;28;20197;-89
2021/12/15 10:11:45;;;;;;;36.13;25.57;;;10.40;99.90;;;;;;5030984;28;20177;-92
2021/12/15 10:17:31;;;;;;;34.40;24.47;;;10.50;99.90;;;;;;5033881;28;20172;-93
2021/12/15 10:20:09;;;;;;;31.90;24.00;;;10.50;99.90;;;;;;5057894;28;20248;-87
2021/12/15 10:22:44;;;;;;;29.47;22.57;;;10.70;99.90;;;;;;5056471;28;20153;-84
2021/12/15 10:25:16;;;;;;;32.77;24.00;;;10.90;99.90;;;;;;5071399;28;20183;-89
2021/12/15 10:28:07;;;;;;;32.27;23.30;;;11.10;99.90;;;;;;5056766;28;20181;-85
2021/12/15 10:30:39;;;;;;;32.37;23.03;;;11.20;99.90;;;;;;5059451;28;20195;-92
2021/12/15 10:33:41;;;;;;;30.97;23.90;;;11.20;99.90;;;;;;5047803;28;20169;-88
2021/12/15 10:36:19;;;;;;;31.03;23.37;;;11.10;99.90;;;;;;4962941;29;20175;-83
2021/12/15 10:38:54;;;;;;;27.93;21.43;;;11.00;99.90;;;;;;4956599;29;20256;-84
2021/12/15 10:41:26;;;;;;;30.20;23.70;;;10.80;99.90;;;;;;4949363;29;20644;-90
2021/12/15 10:44:14;;;;;;;34.30;24.57;;;10.70;99.90;;;;;;4957341;28;20165;-84
2021/12/15 10:46:53;;;;;;;31.17;23.73;;;10.80;99.90;;;;;;5026503;28;20197;-90
2021/12/15 10:49:31;;;;;;;30.60;23.40;;;10.90;99.90;;;;;;5052383;28;20680;-93
2021/12/15 10:52:09;;;;;;;31.07;22.93;;;10.80;99.90;;;;;;5062108;28;20165;-92
2021/12/15 10:54:49;;;;;;;30.83;23.17;;;10.90;99.90;;;;;;5066004;28;20176;-86
2021/12/15 10:57:27;;;;;;;32.00;21.27;;;10.80;99.90;;;;;;5077487;28;20149;-90
2021/12/15 10:59:56;;;;;;;26.90;21.70;;;10.60;99.90;;;;;;5072036;28;20207;-88
2021/12/15 11:02:28;;;;;;;29.10;22.90;;;10.60;99.90;;;;;;5050437;28;20189;-87
2021/12/15 11:08:20;;;;;;;28.03;20.83;;;10.60;99.90;;;;;;5062539;28;20208;-86
2021/12/15 11:10:47;;;;;;;27.37;20.90;;;10.60;99.90;;;;;;5046568;28;20176;-87
2021/12/15 11:13:19;;;;;;;29.87;21.27;;;10.60;99.90;;;;;;5048912;28;20181;-90
2021/12/15 11:15:53;;;;;;;29.63;21.57;;;10.60;99.90;;;;;;5068430;28;20225;-85
2021/12/15 11:18:30;;;;;;;29.23;22.97;;;10.70;99.90;;;;;;5073600;28;20164;-87
2021/12/15 11:21:16;;;;;;;29.60;23.33;;;10.70;99.90;;;;;;5049460;28;20196;-87
2021/12/15 11:23:54;;;;;;;29.70;22.60;;;10.60;99.90;;;;;;5049536;28;20632;-85
2021/12/15 11:26:20;;;;;;;29.50;21.13;;;10.60;99.90;;;;;;5067434;28;20644;-85
2021/12/15 11:28:49;;;;;;;29.00;21.57;;;10.60;99.90;;;;;;5047319;28;20193;-90
2021/12/15 11:31:36;;;;;;;28.00;21.60;;;10.70;99.90;;;;;;5065802;28;20192;-94
2021/12/15 11:34:05;;;;;;;28.27;22.73;;;10.80;99.90;;;;;;5036407;28;20284;-85
2021/12/15 11:36:46;;;;;;;27.00;21.73;;;10.80;99.90;;;;;;5046894;28;20169;-84
2021/12/15 11:39:24;;;;;;;28.57;21.60;;;10.90;99.90;;;;;;5016293;28;20187;-85
2021/12/15 11:42:10;;;;;;;27.57;21.33;;;10.70;99.90;;;;;;5044673;28;20172;-85
2021/12/15 11:44:42;;;;;;;27.37;22.13;;;10.70;99.90;;;;;;5052802;28;20202;-88
2021/12/15 11:47:28;;;;;;;26.43;21.77;;;10.70;99.90;;;;;;5039444;28;20205;-92
2021/12/15 11:50:16;;;;;;;29.53;22.47;;;10.80;99.90;;;;;;5041356;28;20232;-93
2021/12/15 11:52:49;;;;;;;24.60;21.37;;;10.70;99.90;;;;;;5046872;28;20173;-92
2021/12/15 11:55:33;;;;;;;26.30;21.77;;;10.80;99.90;;;;;;5029110;28;20225;-93
2021/12/15 11:58:00;;;;;;;30.57;21.63;;;10.80;99.90;;;;;;5030357;28;20169;-85
2021/12/15 12:00:30;;;;;;;29.23;22.97;;;10.90;99.90;;;;;;5044355;28;20177;-83
2021/12/15 12:03:03;;;;;;;25.23;20.37;;;10.70;99.90;;;;;;5027961;28;20177;-94
2021/12/15 12:05:37;;;;;;;26.90;21.53;;;10.80;99.90;;;;;;5056618;28;20176;-84
2021/12/15 12:08:11;;;;;;;31.63;22.37;;;10.90;99.90;;;;;;5060130;28;20215;-82
2021/12/15 12:11:03;;;;;;;26.83;20.53;;;10.80;99.90;;;;;;5027565;28;20230;-90
2021/12/15 12:13:40;;;;;;;28.60;21.90;;;10.70;99.90;;;;;;5069584;28;20181;-89
2021/12/15 12:16:08;;;;;;;25.97;20.40;;;10.70;99.90;;;;;;5057772;28;20663;-87
2021/12/15 12:22:33;;;;;;;29.77;22.57;;;10.70;99.90;;;;;;5071000;28;20276;-87
2021/12/15 12:25:13;;;;;;;30.83;22.90;;;10.70;99.90;;;;;;5037287;28;20269;-89
2021/12/15 12:27:42;;;;;;;27.33;21.57;;;10.70;99.90;;;;;;5031057;28;20176;-93
2021/12/15 12:30:32;;;;;;;29.43;21.73;;;10.60;99.90;;;;;;5033768;28;20162;-87
2021/12/15 12:33:01;;;;;;;30.77;22.97;;;10.60;99.90;;;;;;5038146;28;20219;-91
2021/12/15 12:35:30;;;;;;;29.33;22.47;;;10.70;99.90;;;;;;5047334;28;20157;-86
2021/12/15 12:38:01;;;;;;;29.00;23.53;;;10.80;99.90;;;;;;5042905;28;20229;-87
2021/12/15 12:44:00;;;;;;;29.80;22.57;;;11.00;99.90;;;;;;5050994;28;20212;-90
2021/12/15 13:01:15;;;;;;;28.37;22.27;;;11.00;99.90;;;;;;5061634;28;20172;-93
2021/12/15 13:03:54;;;;;;;27.47;22.53;;;11.00;99.90;;;;;;5043969;28;20173;-88
2021/12/15 13:06:27;;;;;;;32.93;24.40;;;11.00;99.90;;;;;;5068254;28;20267;-86
2021/12/15 13:09:02;;;;;;;35.23;24.90;;;10.90;99.90;;;;;;5051575;28;20220;-88
2021/12/15 13:11:36;;;;;;;29.27;23.50;;;10.90;99.90;;;;;;5050971;28;20165;-86
2021/12/15 13:14:19;;;;;;;27.83;22.00;;;10.90;99.90;;;;;;5061369;28;20181;-85
2021/12/15 13:16:53;;;;;;;30.13;23.23;;;10.80;99.90;;;;;;5062771;28;20145;-91
2021/12/15 13:19:33;;;;;;;30.67;24.13;;;10.90;99.90;;;;;;5062445;28;20179;-87
2021/12/15 13:22:23;;;;;;;32.30;24.87;;;11.00;99.90;;;;;;5062343;28;20220;-91
2021/12/15 13:31:19;;;;;;;31.40;24.07;;;11.00;99.90;;;;;;5061195;28;20165;-84
2021/12/15 13:37:09;;;;;;;30.13;22.97;;;11.10;99.90;;;;;;5058660;28;20161;-88
2021/12/15 13:43:03;;;;;;;28.40;23.70;;;11.00;99.90;;;;;;5048006;28;20200;-90
2021/12/15 13:45:32;;;;;;;31.20;25.53;;;10.90;99.90;;;;;;5025879;28;20209;-92
2021/12/15 13:47:59;;;;;;;30.83;24.17;;;10.90;99.90;;;;;;5044464;28;20264;-84
2021/12/15 13:50:29;;;;;;;30.40;24.50;;;10.90;99.90;;;;;;5040682;28;20175;-88
2021/12/15 13:52:59;;;;;;;30.53;24.50;;;10.90;99.90;;;;;;5057550;28;20185;-84
2021/12/15 13:55:38;;;;;;;31.77;24.47;;;11.00;99.90;;;;;;5077597;28;20176;-89
2021/12/15 13:58:36;;;;;;;30.20;23.03;;;10.90;99.90;;;;;;5050434;28;20204;-89
2021/12/15 14:01:12;;;;;;;32.90;24.53;;;10.90;99.90;;;;;;5042434;28;20241;-86
2021/12/15 14:03:47;;;;;;;35.10;25.50;;;10.90;99.90;;;;;;5043420;28;20251;-92
2021/12/15 14:06:16;;;;;;;30.40;24.17;;;10.90;99.90;;;;;;5043681;28;20169;-91
2021/12/15 14:08:46;;;;;;;31.73;24.30;;;11.00;99.90;;;;;;5045074;28;20205;-87
2021/12/15 14:11:28;;;;;;;32.73;25.07;;;11.00;99.90;;;;;;5047501;28;20162;-92
2021/12/15 14:14:20;;;;;;;27.53;23.13;;;10.80;99.90;;;;;;5031379;28;20209;-86
2021/12/15 14:16:49;;;;;;;32.30;24.77;;;10.80;99.90;;;;;;5022114;28;20254;-93
2021/12/15 14:19:20;;;;;;;31.77;25.43;;;10.70;99.90;;;;;;5025670;28;20174;-91
2021/12/15 14:21:47;;;;;;;34.23;25.37;;;11.00;99.90;;;;;;5043987;28;20194;-91
2021/12/15 14:24:15;;;;;;;34.00;26.37;;;11.00;99.90;;;;;;5043323;28;20215;-89
2021/12/15 14:26:41;;;;;;;32.53;26.20;;;11.10;99.90;;;;;;5046723;28;20176;-93
2021/12/15 14:29:15;;;;;;;34.37;25.20;;;11.00;99.90;;;;;;5043865;28;20205;-91
2021/12/15 14:31:44;;;;;;;30.50;25.57;;;11.00;99.90;;;;;;5036862;28;20169;-92
2021/12/15 14:34:21;;;;;;;34.50;25.67;;;11.00;99.90;;;;;;5055172;28;20173;-91
2021/12/15 14:37:01;;;;;;;30.53;25.73;;;11.00;99.90;;;;;;5027561;28;20561;-88
2021/12/15 14:39:31;;;;;;;31.60;25.10;;;11.00;99.90;;;;;;5040317;28;20200;-90
2021/12/15 14:42:11;;;;;;;32.97;25.30;;;10.90;99.90;;;;;;5040490;28;20180;-91
2021/12/15 14:44:47;;;;;;;31.83;23.93;;;10.90;99.90;;;;;;5041080;28;20250;-87
2021/12/15 14:47:16;;;;;;;35.57;26.83;;;10.90;99.90;;;;;;5047115;28;20192;-86
2021/12/15 14:49:47;;;;;;;31.27;24.23;;;10.90;99.90;;;;;;5028793;28;20213;-85